createdAt,value
2022-10-13T00:00:47.915Z,78.80
2022-10-13T00:03:15.242Z,78.80
2022-10-13T00:05:47.821Z,78.80
2022-10-13T00:08:19.383Z,78.80
2022-10-13T00:10:48.696Z,78.80
2022-10-13T00:13:19.877Z,78.90
2022-10-13T00:15:48.146Z,79.00
2022-10-13T00:18:16.057Z,79.10
2022-10-13T00:20:48.211Z,79.10
2022-10-13T00:23:16.311Z,79.20
2022-10-13T00:25:48.469Z,79.30
2022-10-13T00:28:17.720Z,79.30
2022-10-13T00:30:45.300Z,79.40
2022-10-13T00:33:13.058Z,79.40
2022-10-13T00:35:47.614Z,79.40
2022-10-13T00:38:16.540Z,79.50
2022-10-13T00:40:49.008Z,79.40
2022-10-13T00:43:24.431Z,79.40
2022-10-13T00:45:52.605Z,79.40
2022-10-13T00:48:24.761Z,79.40
2022-10-13T00:50:53.041Z,79.40
2022-10-13T00:53:24.373Z,79.40
2022-10-13T00:55:52.245Z,79.40
2022-10-13T00:58:22.099Z,79.40
2022-10-13T01:00:51.142Z,79.40
2022-10-13T01:03:21.283Z,79.50
2022-10-13T01:05:50.112Z,79.50
2022-10-13T01:08:19.047Z,79.60
2022-10-13T01:11:07.706Z,79.60
2022-10-13T01:14:24.111Z,79.60
2022-10-13T01:17:04.420Z,79.60
2022-10-13T01:20:08.116Z,79.70
2022-10-13T01:22:56.139Z,79.70
2022-10-13T01:25:44.479Z,79.70
2022-10-13T01:28:34.669Z,79.80
2022-10-13T01:31:24.856Z,79.80
2022-10-13T01:34:05.463Z,79.90
2022-10-13T01:36:43.767Z,79.90
2022-10-13T01:39:39.980Z,80.00
2022-10-13T01:42:53.183Z,80.10
2022-10-13T01:45:24.255Z,80.20
2022-10-13T01:47:53.016Z,80.20
2022-10-13T01:50:20.856Z,80.20
2022-10-13T01:52:50.345Z,80.20
2022-10-13T01:55:17.252Z,80.10
2022-10-13T01:57:45.633Z,80.10
2022-10-13T02:00:14.725Z,80.10
2022-10-13T02:03:07.609Z,80.20
2022-10-13T02:05:42.566Z,80.20
2022-10-13T02:08:31.003Z,80.10
2022-10-13T02:11:14.591Z,80.20
2022-10-13T02:13:51.876Z,80.20
2022-10-13T02:16:23.726Z,80.20
2022-10-13T02:18:51.905Z,80.20
2022-10-13T02:21:19.048Z,80.10
2022-10-13T02:23:46.453Z,80.10
2022-10-13T02:26:14.107Z,80.10
2022-10-13T02:28:41.609Z,80.20
2022-10-13T02:31:09.513Z,80.20
2022-10-13T02:33:36.765Z,80.20
2022-10-13T02:36:04.031Z,80.30
2022-10-13T02:38:31.193Z,80.30
2022-10-13T02:40:58.376Z,80.30
2022-10-13T02:43:25.546Z,80.20
2022-10-13T02:45:52.483Z,80.30
2022-10-13T02:48:19.462Z,80.20
2022-10-13T02:50:47.631Z,80.20
2022-10-13T02:53:14.628Z,80.20
2022-10-13T02:55:41.675Z,80.10
2022-10-13T02:58:08.674Z,80.10
2022-10-13T03:00:35.654Z,80.10
2022-10-13T03:03:03.012Z,80.00
2022-10-13T03:05:29.984Z,80.10
2022-10-13T03:07:57.259Z,80.10
2022-10-13T03:10:24.242Z,80.10
2022-10-13T03:12:52.045Z,80.10
2022-10-13T03:15:18.964Z,80.10
2022-10-13T03:17:48.587Z,80.20
2022-10-13T03:20:16.044Z,80.30
2022-10-13T03:22:46.064Z,80.30
2022-10-13T03:25:16.690Z,80.40
2022-10-13T03:27:43.691Z,80.50
2022-10-13T03:30:11.589Z,80.50
2022-10-13T03:32:40.683Z,80.50
2022-10-13T03:35:08.264Z,80.50
2022-10-13T03:37:35.169Z,80.50
2022-10-13T03:40:02.096Z,80.50
2022-10-13T03:42:29.028Z,80.50
2022-10-13T03:44:56.664Z,80.50
2022-10-13T03:47:24.037Z,80.50
2022-10-13T03:49:51.002Z,80.50
2022-10-13T03:52:18.311Z,80.50
2022-10-13T03:54:45.467Z,80.50
2022-10-13T03:57:12.492Z,80.50
2022-10-13T03:59:42.556Z,80.50
2022-10-13T04:02:09.496Z,80.60
2022-10-13T04:04:38.486Z,80.60
2022-10-13T04:07:06.973Z,80.60
2022-10-13T04:09:34.263Z,80.60
2022-10-13T04:12:01.284Z,80.60
2022-10-13T04:14:28.186Z,80.60
2022-10-13T04:17:01.199Z,80.60
2022-10-13T04:19:28.170Z,80.50
2022-10-13T04:21:55.051Z,80.50
2022-10-13T04:24:22.051Z,80.50
2022-10-13T04:26:48.971Z,80.50
2022-10-13T04:29:16.001Z,80.50
2022-10-13T04:31:43.926Z,80.50
2022-10-13T04:34:12.198Z,80.60
2022-10-13T04:36:39.323Z,80.60
2022-10-13T04:39:06.320Z,80.60
2022-10-13T04:41:34.447Z,80.60
2022-10-13T04:44:02.556Z,80.60
2022-10-13T04:46:29.748Z,80.60
2022-10-13T04:48:57.689Z,80.60
2022-10-13T04:51:32.400Z,80.60
2022-10-13T04:54:03.486Z,80.50
2022-10-13T04:56:30.420Z,80.50
2022-10-13T04:59:02.634Z,80.50
2022-10-13T05:01:29.592Z,80.50
2022-10-13T05:03:59.929Z,80.50
2022-10-13T05:06:30.057Z,80.50
2022-10-13T05:08:57.811Z,80.50
2022-10-13T05:11:26.761Z,80.50
2022-10-13T05:13:54.554Z,80.50
2022-10-13T05:16:22.433Z,80.50
2022-10-13T05:18:51.197Z,80.50
2022-10-13T05:21:23.888Z,80.50
2022-10-13T05:23:54.326Z,80.50
2022-10-13T05:26:28.968Z,80.50
2022-10-13T05:29:00.137Z,80.50
2022-10-13T05:31:31.016Z,80.50
2022-10-13T05:33:59.837Z,80.50
2022-10-13T05:36:33.067Z,80.50
2022-10-13T05:39:02.927Z,80.50
2022-10-13T05:41:30.746Z,80.40
2022-10-13T05:44:03.146Z,80.40
2022-10-13T05:46:30.230Z,80.40
2022-10-13T05:48:57.356Z,80.50
2022-10-13T05:51:32.239Z,80.50
2022-10-13T05:54:14.485Z,80.50
2022-10-13T05:56:59.998Z,80.50
2022-10-13T05:59:30.763Z,80.50
2022-10-13T06:01:58.012Z,80.50
2022-10-13T06:04:31.761Z,80.50
2022-10-13T06:06:58.769Z,80.50
2022-10-13T06:09:32.075Z,80.60
2022-10-13T06:11:58.974Z,80.50
2022-10-13T06:14:25.879Z,80.60
2022-10-13T06:16:52.864Z,80.50
2022-10-13T06:19:19.759Z,80.60
2022-10-13T06:21:46.706Z,80.60
2022-10-13T06:24:13.636Z,80.70
2022-10-13T06:26:40.907Z,80.70
2022-10-13T06:29:08.189Z,80.80
2022-10-13T06:31:35.237Z,80.80
2022-10-13T06:34:02.803Z,80.80
2022-10-13T06:36:31.741Z,80.90
2022-10-13T06:38:58.787Z,80.90
2022-10-13T06:41:25.941Z,80.90
2022-10-13T06:43:52.880Z,80.90
2022-10-13T06:46:21.326Z,80.90
2022-10-13T06:48:52.247Z,80.90
2022-10-13T06:51:20.336Z,81.00
2022-10-13T06:53:47.278Z,81.00
2022-10-13T06:56:14.660Z,81.00
2022-10-13T06:58:41.580Z,81.00
2022-10-13T07:01:12.105Z,81.10
2022-10-13T07:03:39.176Z,81.10
2022-10-13T07:06:07.049Z,81.10
2022-10-13T07:08:35.260Z,81.20
2022-10-13T07:11:15.888Z,81.30
2022-10-13T07:13:46.418Z,81.30
2022-10-13T07:16:17.337Z,81.30
2022-10-13T07:18:44.387Z,81.30
2022-10-13T07:21:11.646Z,81.30
2022-10-13T07:23:38.705Z,81.40
2022-10-13T07:26:14.041Z,81.50
2022-10-13T07:28:41.435Z,81.50
2022-10-13T07:31:13.799Z,81.60
2022-10-13T07:33:42.576Z,81.60
2022-10-13T07:36:10.718Z,81.60
2022-10-13T07:38:37.770Z,81.70
2022-10-13T07:41:07.421Z,81.70
2022-10-13T07:43:35.059Z,81.70
2022-10-13T07:46:06.045Z,81.80
2022-10-13T07:48:34.914Z,81.80
2022-10-13T07:51:12.061Z,81.90
2022-10-13T07:53:40.550Z,81.90
2022-10-13T07:56:10.451Z,82.00
2022-10-13T07:58:38.785Z,81.90
2022-10-13T08:01:06.335Z,81.90
2022-10-13T08:03:40.197Z,81.90
2022-10-13T08:06:10.079Z,82.00
2022-10-13T08:08:37.554Z,82.00
2022-10-13T08:11:07.242Z,82.10
2022-10-13T08:13:34.879Z,82.10
2022-10-13T08:16:13.199Z,82.10
2022-10-13T08:18:40.236Z,82.10
2022-10-13T08:21:45.932Z,82.00
2022-10-13T08:23:59.896Z,82.00
2022-10-13T08:26:28.581Z,82.00
2022-10-13T08:29:16.658Z,81.90
2022-10-13T08:31:43.719Z,81.90
2022-10-13T08:34:12.008Z,81.90
2022-10-13T08:36:39.857Z,81.90
2022-10-13T08:39:06.872Z,81.80
2022-10-13T08:41:40.165Z,81.80
2022-10-13T08:47:30.107Z,81.80
2022-10-13T08:50:01.287Z,81.70
2022-10-13T08:52:42.988Z,81.60
2022-10-13T08:55:29.771Z,81.50
2022-10-13T08:57:57.133Z,81.40
2022-10-13T09:00:28.700Z,81.30
2022-10-13T09:03:08.219Z,81.20
2022-10-13T09:05:46.954Z,81.20
2022-10-13T09:08:21.179Z,81.20
2022-10-13T09:10:52.219Z,81.20
2022-10-13T09:13:20.380Z,81.20
2022-10-13T09:15:50.578Z,81.30
2022-10-13T09:18:17.628Z,81.40
2022-10-13T09:20:44.606Z,81.40
2022-10-13T09:23:14.410Z,81.30
2022-10-13T09:25:44.165Z,81.20
2022-10-13T09:28:25.879Z,81.20
2022-10-13T09:31:15.919Z,81.20
2022-10-13T09:33:43.712Z,81.00
2022-10-13T09:36:16.192Z,80.90
2022-10-13T09:39:13.596Z,80.80
2022-10-13T09:41:43.141Z,80.80
2022-10-13T09:44:27.696Z,80.80
2022-10-13T09:46:58.207Z,80.90
2022-10-13T09:49:40.326Z,80.90
2022-10-13T09:52:18.486Z,80.90
2022-10-13T09:54:51.903Z,80.90
2022-10-13T09:57:31.018Z,80.90
2022-10-13T10:00:17.140Z,80.90
2022-10-13T10:03:05.576Z,81.00
2022-10-13T10:05:42.064Z,80.80
2022-10-13T10:09:01.395Z,80.70
2022-10-13T10:11:50.216Z,80.70
2022-10-13T10:14:26.209Z,80.70
2022-10-13T10:17:30.465Z,80.70
2022-10-13T10:20:12.983Z,80.70
2022-10-13T10:23:01.273Z,80.60
2022-10-13T10:25:59.227Z,80.60
2022-10-13T10:28:49.517Z,80.50
2022-10-13T10:31:40.356Z,80.40
2022-10-13T10:34:31.448Z,80.30
2022-10-13T10:37:11.544Z,80.20
2022-10-13T10:39:59.953Z,80.00
2022-10-13T10:42:48.419Z,79.80
2022-10-13T10:45:41.247Z,79.60
2022-10-13T10:48:22.950Z,79.60
2022-10-13T10:50:54.336Z,79.60
2022-10-13T10:53:29.564Z,79.50
2022-10-13T10:56:13.455Z,79.10
2022-10-13T10:58:59.952Z,79.00
2022-10-13T11:01:35.098Z,78.80
2022-10-13T11:04:42.364Z,78.70
2022-10-13T11:07:38.669Z,78.70
2022-10-13T11:10:16.375Z,78.60
2022-10-13T11:12:51.881Z,78.60
2022-10-13T11:15:33.722Z,78.60
2022-10-13T11:18:00.755Z,78.60
2022-10-13T11:20:36.400Z,78.60
2022-10-13T11:23:03.423Z,78.60
2022-10-13T11:25:39.368Z,78.50
2022-10-13T11:28:42.767Z,78.40
2022-10-13T11:31:14.157Z,78.40
2022-10-13T11:33:41.060Z,78.60
2022-10-13T11:36:35.453Z,78.70
2022-10-13T11:39:22.554Z,79.00
2022-10-13T11:42:09.521Z,79.10
2022-10-13T11:44:57.067Z,79.30
2022-10-13T11:47:42.356Z,79.40
2022-10-13T11:50:27.299Z,79.40
2022-10-13T11:53:26.283Z,79.50
2022-10-13T11:55:59.231Z,79.70
2022-10-13T11:58:27.803Z,79.80
2022-10-13T12:01:06.480Z,79.90
2022-10-13T12:03:37.493Z,80.10
2022-10-13T12:06:34.166Z,80.20
2022-10-13T12:09:17.611Z,80.50
2022-10-13T12:11:45.268Z,80.60
2022-10-13T12:14:52.441Z,80.80
2022-10-13T12:17:28.482Z,81.00
2022-10-13T12:19:58.718Z,81.10
2022-10-13T12:22:26.379Z,81.30
2022-10-13T12:25:02.375Z,81.40
2022-10-13T12:27:34.112Z,81.60
2022-10-13T12:30:02.176Z,81.80
2022-10-13T12:32:31.482Z,81.90
2022-10-13T12:35:39.816Z,82.10
2022-10-13T12:38:15.982Z,82.30
2022-10-13T12:40:43.233Z,82.50
2022-10-13T12:43:17.103Z,82.70
2022-10-13T12:45:45.797Z,82.80
2022-10-13T12:48:32.712Z,82.90
2022-10-13T12:51:23.789Z,83.10
2022-10-13T12:53:50.813Z,83.20
2022-10-13T12:56:30.867Z,83.30
2022-10-13T12:58:58.782Z,83.40
2022-10-13T13:01:34.187Z,83.40
2022-10-13T13:04:22.762Z,83.50
2022-10-13T13:06:59.043Z,83.50
2022-10-13T13:09:31.297Z,83.50
2022-10-13T13:12:13.287Z,83.50
2022-10-13T13:14:42.763Z,83.50
2022-10-13T13:17:33.012Z,83.50
2022-10-13T13:20:30.096Z,83.60
2022-10-13T13:22:57.151Z,83.70
2022-10-13T13:25:24.594Z,83.80
2022-10-13T13:27:52.533Z,83.80
2022-10-13T13:30:21.701Z,83.80
2022-10-13T13:32:49.272Z,83.90
2022-10-13T13:35:16.822Z,83.90
2022-10-13T13:37:51.529Z,83.80
2022-10-13T13:40:21.484Z,83.80
2022-10-13T13:42:48.761Z,83.90
2022-10-13T13:45:17.899Z,83.90
2022-10-13T13:47:45.065Z,83.90
2022-10-13T13:50:15.195Z,84.00
2022-10-13T13:52:44.928Z,84.20
2022-10-13T13:55:14.134Z,84.30
2022-10-13T13:57:43.104Z,84.40
2022-10-13T14:00:15.312Z,84.40
2022-10-13T14:02:44.882Z,84.40
2022-10-13T14:05:12.523Z,84.30
2022-10-13T14:07:40.625Z,84.20
2022-10-13T14:10:09.120Z,84.10
2022-10-13T14:12:36.429Z,84.10
2022-10-13T14:15:03.721Z,84.00
2022-10-13T14:17:31.615Z,84.10
2022-10-13T14:20:00.584Z,84.00
2022-10-13T14:22:27.715Z,84.10
2022-10-13T14:24:54.712Z,84.10
2022-10-13T14:27:21.887Z,84.20
2022-10-13T14:29:48.898Z,84.30
2022-10-13T14:32:16.074Z,84.30
2022-10-13T14:34:43.071Z,84.30
2022-10-13T14:37:10.378Z,84.40
2022-10-13T14:39:37.452Z,84.40
2022-10-13T14:42:04.356Z,84.50
2022-10-13T14:44:31.352Z,84.50
2022-10-13T14:46:58.321Z,84.50
2022-10-13T14:49:25.902Z,84.50
2022-10-13T14:51:52.880Z,84.50
2022-10-13T14:54:19.914Z,84.50
2022-10-13T14:56:46.973Z,84.50
2022-10-13T14:59:13.977Z,84.50
2022-10-13T15:01:42.662Z,84.40
2022-10-13T15:04:10.260Z,84.40
2022-10-13T15:06:41.867Z,84.40
2022-10-13T15:11:42.168Z,84.40
2022-10-13T15:14:09.895Z,84.50
2022-10-13T15:16:37.952Z,84.50
2022-10-13T15:19:05.478Z,84.50
2022-10-13T15:21:32.502Z,84.50
2022-10-13T15:24:01.443Z,84.50
2022-10-13T15:26:28.590Z,84.60
2022-10-13T15:28:55.605Z,84.60
2022-10-13T15:31:23.874Z,84.60
2022-10-13T15:33:53.408Z,84.70
2022-10-13T15:36:22.062Z,84.70
2022-10-13T15:38:49.255Z,84.70
2022-10-13T15:41:16.312Z,84.70
2022-10-13T15:43:43.406Z,84.70
2022-10-13T15:46:21.797Z,84.70
2022-10-13T15:48:50.253Z,84.70
2022-10-13T15:51:19.673Z,84.80
2022-10-13T15:53:48.493Z,84.80
2022-10-13T15:56:16.493Z,84.80
2022-10-13T15:58:43.812Z,84.80
2022-10-13T16:01:12.295Z,84.80
2022-10-13T16:03:39.783Z,84.80
2022-10-13T16:06:08.859Z,84.90
2022-10-13T16:08:40.687Z,84.90
2022-10-13T16:11:09.216Z,84.90
2022-10-13T16:13:36.150Z,84.90
2022-10-13T16:16:03.315Z,85.00
2022-10-13T16:18:35.657Z,85.00
2022-10-13T16:21:29.024Z,85.00
2022-10-13T16:23:56.031Z,85.00
2022-10-13T16:26:23.159Z,85.00
2022-10-13T16:28:53.876Z,85.00
2022-10-13T16:31:20.858Z,85.00
2022-10-13T16:33:48.079Z,85.00
2022-10-13T16:36:17.655Z,85.00
2022-10-13T16:38:45.472Z,85.00
2022-10-13T16:41:14.775Z,85.10
2022-10-13T16:43:42.480Z,85.10
2022-10-13T16:46:13.462Z,85.10
2022-10-13T16:48:41.477Z,85.10
2022-10-13T16:51:16.649Z,85.10
2022-10-13T16:53:46.892Z,85.10
2022-10-13T16:56:14.390Z,85.10
2022-10-13T16:58:45.304Z,85.10
2022-10-13T17:01:13.282Z,85.10
2022-10-13T17:03:42.866Z,85.10
2022-10-13T17:06:10.630Z,85.10
2022-10-13T17:08:37.770Z,85.10
2022-10-13T17:11:06.292Z,85.20
2022-10-13T17:13:34.654Z,85.20
2022-10-13T17:16:01.837Z,85.20
2022-10-13T17:18:28.959Z,85.20
2022-10-13T17:20:57.267Z,85.20
2022-10-13T17:23:25.012Z,85.20
2022-10-13T17:25:53.309Z,85.20
2022-10-13T17:28:20.657Z,85.20
2022-10-13T17:30:58.217Z,85.20
2022-10-13T17:33:29.257Z,85.20
2022-10-13T17:36:00.924Z,85.20
2022-10-13T17:38:28.519Z,85.30
2022-10-13T17:41:04.594Z,85.20
2022-10-13T17:43:32.975Z,85.30
2022-10-13T17:46:40.316Z,85.30
2022-10-13T17:49:10.451Z,85.30
2022-10-13T17:51:37.505Z,85.40
2022-10-13T17:54:05.221Z,85.40
2022-10-13T17:56:32.452Z,85.40
2022-10-13T17:59:00.830Z,85.40
2022-10-13T18:01:31.870Z,85.40
2022-10-13T18:04:05.062Z,85.50
2022-10-13T18:06:38.637Z,85.50
2022-10-13T18:09:15.950Z,85.50
2022-10-13T18:11:49.710Z,85.50
2022-10-13T18:14:18.961Z,85.50
2022-10-13T18:16:48.962Z,85.50
2022-10-13T18:19:16.220Z,85.50
2022-10-13T18:21:43.503Z,85.50
2022-10-13T18:24:11.801Z,85.50
2022-10-13T18:26:39.633Z,85.60
2022-10-13T18:29:08.084Z,85.60
2022-10-13T18:31:37.192Z,85.60
2022-10-13T18:34:06.834Z,85.60
2022-10-13T18:36:35.091Z,85.60
2022-10-13T18:39:21.083Z,85.70
2022-10-13T18:41:49.268Z,85.70
2022-10-13T18:44:16.502Z,85.70
2022-10-13T18:46:43.663Z,85.70
2022-10-13T18:49:15.149Z,85.70
2022-10-13T18:51:43.798Z,85.70
2022-10-13T18:54:10.942Z,85.70
2022-10-13T18:56:38.196Z,85.70
2022-10-13T18:59:06.585Z,85.70
2022-10-13T19:01:35.535Z,85.80
2022-10-13T19:04:02.828Z,85.80
2022-10-13T19:06:32.220Z,85.80
2022-10-13T19:09:04.975Z,85.80
2022-10-13T19:11:34.876Z,85.80
2022-10-13T19:14:03.531Z,85.80
2022-10-13T19:16:31.927Z,85.80
2022-10-13T19:18:58.909Z,85.80
2022-10-13T19:21:26.707Z,85.80
2022-10-13T19:23:53.772Z,85.90
2022-10-13T19:26:25.440Z,85.90
2022-10-13T19:29:01.983Z,85.90
2022-10-13T19:31:31.295Z,85.90
2022-10-13T19:33:59.891Z,85.90
2022-10-13T19:36:33.297Z,85.90
2022-10-13T19:39:06.740Z,85.90
2022-10-13T19:41:34.616Z,86.00
2022-10-13T19:44:02.819Z,86.00
2022-10-13T19:46:40.343Z,85.90
2022-10-13T19:49:07.835Z,86.00
2022-10-13T19:51:35.491Z,85.90
2022-10-13T19:54:02.955Z,85.90
2022-10-13T19:56:31.651Z,85.90
2022-10-13T19:58:59.433Z,85.90
2022-10-13T20:01:27.058Z,86.00
2022-10-13T20:03:54.422Z,86.00
2022-10-13T20:06:21.879Z,86.00
2022-10-13T20:08:49.319Z,86.00
2022-10-13T20:11:23.399Z,86.00
2022-10-13T20:13:52.020Z,86.00
2022-10-13T20:16:23.446Z,86.00
2022-10-13T20:18:58.487Z,86.00
2022-10-13T20:21:27.206Z,86.00
2022-10-13T20:23:54.445Z,86.00
2022-10-13T20:26:22.133Z,86.00
2022-10-13T20:28:50.737Z,86.00
2022-10-13T20:31:19.786Z,86.00
2022-10-13T20:33:47.428Z,86.00
2022-10-13T20:36:16.888Z,86.00
2022-10-13T20:38:43.921Z,86.00
2022-10-13T20:41:27.357Z,86.10
2022-10-13T20:43:56.713Z,86.00
2022-10-13T20:46:24.227Z,86.10
2022-10-13T20:51:41.854Z,86.10
2022-10-13T20:54:10.002Z,86.10
2022-10-13T20:56:37.203Z,86.10
2022-10-13T20:59:06.160Z,86.10
2022-10-13T21:01:33.875Z,86.10
2022-10-13T21:04:00.778Z,86.20
2022-10-13T21:06:27.788Z,86.20
2022-10-13T21:08:57.094Z,86.20
2022-10-13T21:11:25.091Z,86.20
2022-10-13T21:14:03.569Z,86.20
2022-10-13T21:16:31.056Z,86.20
2022-10-13T21:18:58.926Z,86.20
2022-10-13T21:21:28.763Z,86.20
2022-10-13T21:23:57.940Z,86.20
2022-10-13T21:26:48.294Z,86.20
2022-10-13T21:29:15.353Z,86.20
2022-10-13T21:31:42.305Z,86.20
2022-10-13T21:34:10.866Z,86.20
2022-10-13T21:36:42.358Z,86.20
2022-10-13T21:39:11.278Z,86.20
2022-10-13T21:41:38.214Z,86.20
2022-10-13T21:44:05.183Z,86.20
2022-10-13T21:46:34.688Z,86.20
2022-10-13T21:49:04.633Z,86.30
2022-10-13T21:51:36.773Z,86.20
2022-10-13T21:54:08.866Z,86.30
2022-10-13T21:56:37.089Z,86.20
2022-10-13T21:59:05.261Z,86.30
2022-10-13T22:01:33.059Z,86.30
2022-10-13T22:04:02.703Z,86.20
2022-10-13T22:06:32.105Z,86.20
2022-10-13T22:09:01.213Z,86.20
2022-10-13T22:11:31.187Z,86.20
2022-10-13T22:13:59.485Z,86.20
2022-10-13T22:16:29.480Z,86.20
2022-10-13T22:18:57.462Z,86.20
2022-10-13T22:21:29.968Z,86.20
2022-10-13T22:23:59.211Z,86.20
2022-10-13T22:26:27.497Z,86.20
2022-10-13T22:28:54.838Z,86.20
2022-10-13T22:31:21.959Z,86.20
2022-10-13T22:33:49.031Z,86.20
2022-10-13T22:36:18.383Z,86.20
2022-10-13T22:38:46.930Z,86.20
2022-10-13T22:41:14.855Z,86.20
2022-10-13T22:43:44.410Z,86.20
2022-10-13T22:46:13.433Z,86.20
2022-10-13T22:48:41.698Z,86.20
2022-10-13T22:51:19.659Z,86.20
2022-10-13T22:53:47.022Z,86.20
2022-10-13T22:56:16.887Z,86.20
2022-10-13T22:58:44.107Z,86.20
2022-10-13T23:01:13.772Z,86.10
2022-10-13T23:03:40.981Z,86.20
2022-10-13T23:06:13.389Z,86.10
2022-10-13T23:08:40.544Z,86.20
2022-10-13T23:11:07.743Z,86.20
2022-10-13T23:13:34.803Z,86.20
2022-10-13T23:16:03.377Z,86.20
2022-10-13T23:18:34.463Z,86.20
2022-10-13T23:21:08.298Z,86.30
2022-10-13T23:23:35.361Z,86.30
2022-10-13T23:26:08.191Z,86.20
2022-10-13T23:28:35.883Z,86.30
2022-10-13T23:31:04.956Z,86.30
2022-10-13T23:33:32.565Z,86.30
2022-10-13T23:36:01.161Z,86.30
2022-10-13T23:38:29.604Z,86.30
2022-10-13T23:41:01.739Z,86.30
2022-10-13T23:43:28.692Z,86.30
2022-10-13T23:45:55.592Z,86.30
2022-10-13T23:48:22.581Z,86.30
2022-10-13T23:50:49.478Z,86.40
2022-10-13T23:53:16.759Z,86.30
2022-10-13T23:55:43.702Z,86.40
2022-10-13T23:58:10.762Z,86.30
